Upperstrasburg, Pennsylvania
Current Conditions -  °F | °C
As of 7:53 PM on Friday 19 Dec 2014 (Local Time) from KHGR Reporting Station
Clear Clear  
Wind Chill: 21°   Ceiling: Unl
Heat Index: 29°   Visibility: 10mi
Dew Point: 20°   Wind: 8mph
Humidity: 69%   Direction: 300°WNW
Pressure: 30.22"   Gusts: NA
Location:  40.05°N, 77.77°W
Report Text: KHGR 200053Z AUTO 30007KT 10SM CLR M02/M07 A3022 RMK AO2 SLP251 T10171067
Loading
Personal Weather Stations






























Interactive Weather Map New forecast layout! Learn more

10-Day Weather Forecast

Advertisements
Track Severe Weather on mobile